sensor_id;sensor_type;location;lat;lon;timestamp;pressure;altitude;pressure_sealevel;temperature;humidity
74529;BME280;63009;52.584;5.932;2023-04-06T00:00:19;101892.00;;;2.69;69.14
74529;BME280;63009;52.584;5.932;2023-04-06T00:02:46;101896.34;;;2.68;69.29
74529;BME280;63009;52.584;5.932;2023-04-06T00:05:11;101888.53;;;2.68;69.40
74529;BME280;63009;52.584;5.932;2023-04-06T00:07:36;101884.16;;;2.69;69.85
74529;BME280;63009;52.584;5.932;2023-04-06T00:10:03;101888.56;;;2.62;69.61
74529;BME280;63009;52.584;5.932;2023-04-06T00:12:28;101878.94;;;2.66;69.23
74529;BME280;63009;52.584;5.932;2023-04-06T00:14:53;101879.81;;;2.68;69.74
74529;BME280;63009;52.584;5.932;2023-04-06T00:17:19;101863.31;;;2.64;69.61
74529;BME280;63009;52.584;5.932;2023-04-06T00:19:44;101873.75;;;2.67;69.34
74529;BME280;63009;52.584;5.932;2023-04-06T00:22:10;101869.38;;;2.65;69.51
74529;BME280;63009;52.584;5.932;2023-04-06T00:24:35;101871.16;;;2.61;70.44
74529;BME280;63009;52.584;5.932;2023-04-06T00:27:01;101856.47;;;2.54;70.40
74529;BME280;63009;52.584;5.932;2023-04-06T00:29:26;101859.91;;;2.56;70.61
74529;BME280;63009;52.584;5.932;2023-04-06T00:31:51;101840.88;;;2.45;70.72
74529;BME280;63009;52.584;5.932;2023-04-06T00:34:16;101846.97;;;2.46;71.24
74529;BME280;63009;52.584;5.932;2023-04-06T00:36:42;101831.41;;;2.35;71.54
74529;BME280;63009;52.584;5.932;2023-04-06T00:39:07;101850.47;;;2.42;71.42
74529;BME280;63009;52.584;5.932;2023-04-06T00:41:32;101853.94;;;2.45;71.57
74529;BME280;63009;52.584;5.932;2023-04-06T00:43:58;101835.75;;;2.34;71.97
74529;BME280;63009;52.584;5.932;2023-04-06T00:46:23;101847.94;;;2.34;71.76
74529;BME280;63009;52.584;5.932;2023-04-06T00:48:49;101849.69;;;2.32;71.98
74529;BME280;63009;52.584;5.932;2023-04-06T00:51:14;101847.06;;;2.32;71.82
74529;BME280;63009;52.584;5.932;2023-04-06T00:53:39;101837.56;;;2.25;71.89
74529;BME280;63009;52.584;5.932;2023-04-06T00:56:05;101842.84;;;2.17;73.03
74529;BME280;63009;52.584;5.932;2023-04-06T00:58:30;101842.88;;;2.16;72.84
74529;BME280;63009;52.584;5.932;2023-04-06T01:00:56;101830.72;;;2.10;73.37
74529;BME280;63009;52.584;5.932;2023-04-06T01:03:21;101815.19;;;1.95;73.61
74529;BME280;63009;52.584;5.932;2023-04-06T01:05:47;101826.47;;;2.01;73.82
74529;BME280;63009;52.584;5.932;2023-04-06T01:08:12;101822.13;;;1.96;74.04
74529;BME280;63009;52.584;5.932;2023-04-06T01:10:37;101809.19;;;1.88;73.84
74529;BME280;63009;52.584;5.932;2023-04-06T01:13:03;101813.44;;;1.95;74.24
74529;BME280;63009;52.584;5.932;2023-04-06T01:15:29;101804.81;;;1.89;74.00
74529;BME280;63009;52.584;5.932;2023-04-06T01:17:54;101806.53;;;1.91;74.02
74529;BME280;63009;52.584;5.932;2023-04-06T01:20:20;101801.34;;;1.88;74.04
74529;BME280;63009;52.584;5.932;2023-04-06T01:22:45;101804.84;;;1.87;73.95
74529;BME280;63009;52.584;5.932;2023-04-06T01:25:11;101804.84;;;1.87;74.34
74529;BME280;63009;52.584;5.932;2023-04-06T01:27:36;101797.91;;;1.85;74.26
74529;BME280;63009;52.584;5.932;2023-04-06T01:30:01;101798.75;;;1.90;74.68
74529;BME280;63009;52.584;5.932;2023-04-06T01:32:27;101807.47;;;1.86;75.08
74529;BME280;63009;52.584;5.932;2023-04-06T01:34:52;101803.16;;;1.78;75.41
74529;BME280;63009;52.584;5.932;2023-04-06T01:37:18;101784.09;;;1.67;75.68
74529;BME280;63009;52.584;5.932;2023-04-06T01:39:43;101802.31;;;1.73;75.95
74529;BME280;63009;52.584;5.932;2023-04-06T01:42:09;101786.69;;;1.69;76.48
74529;BME280;63009;52.584;5.932;2023-04-06T01:44:34;101786.63;;;1.79;75.96
74529;BME280;63009;52.584;5.932;2023-04-06T01:47:00;101792.69;;;1.82;76.35
74529;BME280;63009;52.584;5.932;2023-04-06T01:49:25;101783.22;;;1.74;76.56
74529;BME280;63009;52.584;5.932;2023-04-06T01:51:50;101781.44;;;1.78;76.08
74529;BME280;63009;52.584;5.932;2023-04-06T01:54:16;101790.19;;;1.72;76.96
74529;BME280;63009;52.584;5.932;2023-04-06T01:56:42;101781.50;;;1.72;76.46
74529;BME280;63009;52.584;5.932;2023-04-06T01:59:07;101783.25;;;1.70;76.46
74529;BME280;63009;52.584;5.932;2023-04-06T02:01:32;101768.53;;;1.60;76.01
74529;BME280;63009;52.584;5.932;2023-04-06T02:03:57;101764.22;;;1.57;76.52
74529;BME280;63009;52.584;5.932;2023-04-06T02:06:23;101768.53;;;1.60;76.21
74529;BME280;63009;52.584;5.932;2023-04-06T02:08:48;101770.22;;;1.65;76.21
74529;BME280;63009;52.584;5.932;2023-04-06T02:11:13;101769.38;;;1.65;76.19
74529;BME280;63009;52.584;5.932;2023-04-06T02:13:39;101763.28;;;1.70;75.64
74529;BME280;63009;52.584;5.932;2023-04-06T02:16:04;101749.44;;;1.55;76.23
74529;BME280;63009;52.584;5.932;2023-04-06T02:18:30;101759.78;;;1.67;76.19
74529;BME280;63009;52.584;5.932;2023-04-06T02:20:56;101732.13;;;1.51;76.71
74529;BME280;63009;52.584;5.932;2023-04-06T02:23:21;101756.41;;;1.57;76.94
74529;BME280;63009;52.584;5.932;2023-04-06T02:25:46;101751.22;;;1.53;77.36
74529;BME280;63009;52.584;5.932;2023-04-06T02:28:12;101755.56;;;1.51;77.65
74529;BME280;63009;52.584;5.932;2023-04-06T02:30:37;101755.56;;;1.52;77.65
74529;BME280;63009;52.584;5.932;2023-04-06T02:33:02;101753.00;;;1.47;78.77
74529;BME280;63009;52.584;5.932;2023-04-06T02:35:28;101751.31;;;1.42;78.61
74529;BME280;63009;52.584;5.932;2023-04-06T02:37:54;101739.19;;;1.33;78.20
74529;BME280;63009;52.584;5.932;2023-04-06T02:40:19;101741.78;;;1.33;78.11
74529;BME280;63009;52.584;5.932;2023-04-06T02:42:45;101721.03;;;1.21;77.48
74529;BME280;63009;52.584;5.932;2023-04-06T02:45:10;101746.97;;;1.38;77.42
74529;BME280;63009;52.584;5.932;2023-04-06T02:47:35;101746.09;;;1.37;77.67
74529;BME280;63009;52.584;5.932;2023-04-06T02:50:01;101745.25;;;1.35;77.91
74529;BME280;63009;52.584;5.932;2023-04-06T02:52:26;101742.66;;;1.32;77.89
74529;BME280;63009;52.584;5.932;2023-04-06T02:54:52;101735.72;;;1.31;77.65
74529;BME280;63009;52.584;5.932;2023-04-06T02:57:17;101718.44;;;1.21;77.31
74529;BME280;63009;52.584;5.932;2023-04-06T02:59:42;101728.81;;;1.27;77.18
74529;BME280;63009;52.584;5.932;2023-04-06T03:02:08;101730.50;;;1.33;77.32
74529;BME280;63009;52.584;5.932;2023-04-06T03:04:33;101725.31;;;1.30;77.22
74529;BME280;63009;52.584;5.932;2023-04-06T03:06:58;101713.19;;;1.26;77.51
74529;BME280;63009;52.584;5.932;2023-04-06T03:09:23;101713.19;;;1.27;77.88
74529;BME280;63009;52.584;5.932;2023-04-06T03:11:49;101727.00;;;1.35;78.23
74529;BME280;63009;52.584;5.932;2023-04-06T03:14:14;101727.84;;;1.39;77.94
74529;BME280;63009;52.584;5.932;2023-04-06T03:16:39;101722.66;;;1.37;77.40
74529;BME280;63009;52.584;5.932;2023-04-06T03:19:05;101709.72;;;1.28;78.24
74529;BME280;63009;52.584;5.932;2023-04-06T03:21:30;101719.19;;;1.35;77.99
74529;BME280;63009;52.584;5.932;2023-04-06T03:23:55;101714.88;;;1.33;78.12
74529;BME280;63009;52.584;5.932;2023-04-06T03:26:21;101711.41;;;1.32;78.46
74529;BME280;63009;52.584;5.932;2023-04-06T03:28:47;101711.44;;;1.31;78.05
74529;BME280;63009;52.584;5.932;2023-04-06T03:31:12;101704.50;;;1.27;78.48
74529;BME280;63009;52.584;5.932;2023-04-06T03:33:37;101708.88;;;1.22;79.21
74529;BME280;63009;52.584;5.932;2023-04-06T03:36:03;101703.66;;;1.23;78.85
74529;BME280;63009;52.584;5.932;2023-04-06T03:38:29;101705.41;;;1.21;78.75
74529;BME280;63009;52.584;5.932;2023-04-06T03:40:54;101713.22;;;1.21;79.69
74529;BME280;63009;52.584;5.932;2023-04-06T03:43:19;101699.38;;;1.16;79.61
74529;BME280;63009;52.584;5.932;2023-04-06T03:45:45;101705.41;;;1.23;79.83
74529;BME280;63009;52.584;5.932;2023-04-06T03:48:10;101713.22;;;1.21;79.68
74529;BME280;63009;52.584;5.932;2023-04-06T03:50:35;101701.94;;;1.21;79.83
74529;BME280;63009;52.584;5.932;2023-04-06T03:53:01;101697.59;;;1.21;80.02
74529;BME280;63009;52.584;5.932;2023-04-06T03:55:29;101693.22;;;1.26;80.38
74529;BME280;63009;52.584;5.932;2023-04-06T03:57:54;101700.19;;;1.24;80.47
74529;BME280;63009;52.584;5.932;2023-04-06T04:00:20;101701.88;;;1.31;80.51
74529;BME280;63009;52.584;5.932;2023-04-06T04:02:45;101705.34;;;1.33;80.67
74529;BME280;63009;52.584;5.932;2023-04-06T04:05:10;101668.16;;;1.14;81.14
74529;BME280;63009;52.584;5.932;2023-04-06T04:07:35;101701.91;;;1.28;81.75
74529;BME280;63009;52.584;5.932;2023-04-06T04:10:01;101697.56;;;1.27;82.00
74529;BME280;63009;52.584;5.932;2023-04-06T04:12:26;101672.50;;;1.09;82.01
74529;BME280;63009;52.584;5.932;2023-04-06T04:14:51;101656.09;;;0.94;82.92
74529;BME280;63009;52.584;5.932;2023-04-06T04:17:16;101677.69;;;1.15;82.10
74529;BME280;63009;52.584;5.932;2023-04-06T04:19:42;101690.66;;;1.22;82.98
74529;BME280;63009;52.584;5.932;2023-04-06T04:22:07;101700.16;;;1.26;82.87
74529;BME280;63009;52.584;5.932;2023-04-06T04:24:32;101689.78;;;1.19;82.82
74529;BME280;63009;52.584;5.932;2023-04-06T04:26:58;101701.03;;;1.26;82.37
74529;BME280;63009;52.584;5.932;2023-04-06T04:29:25;101683.75;;;1.16;82.09
74529;BME280;63009;52.584;5.932;2023-04-06T04:31:51;101689.78;;;1.21;81.48
74529;BME280;63009;52.584;5.932;2023-04-06T04:34:17;101697.56;;;1.29;81.16
74529;BME280;63009;52.584;5.932;2023-04-06T04:36:45;101683.69;;;1.22;81.03
74529;BME280;63009;52.584;5.932;2023-04-06T04:39:10;101697.56;;;1.30;80.39
74529;BME280;63009;52.584;5.932;2023-04-06T04:41:36;101688.00;;;1.31;80.51
74529;BME280;63009;52.584;5.932;2023-04-06T04:44:01;101690.59;;;1.31;79.59
74529;BME280;63009;52.584;5.932;2023-04-06T04:46:27;101692.31;;;1.33;79.62
74529;BME280;63009;52.584;5.932;2023-04-06T04:48:52;101688.84;;;1.34;79.24
74529;BME280;63009;52.584;5.932;2023-04-06T04:51:17;101684.47;;;1.36;79.21
74529;BME280;63009;52.584;5.932;2023-04-06T04:53:42;101672.31;;;1.35;78.79
74529;BME280;63009;52.584;5.932;2023-04-06T04:56:08;101683.56;;;1.45;79.17
74529;BME280;63009;52.584;5.932;2023-04-06T04:58:33;101677.50;;;1.43;78.58
74529;BME280;63009;52.584;5.932;2023-04-06T05:00:58;101681.81;;;1.44;78.82
74529;BME280;63009;52.584;5.932;2023-04-06T05:03:25;101680.09;;;1.40;79.10
74529;BME280;63009;52.584;5.932;2023-04-06T05:05:51;101672.28;;;1.40;78.70
74529;BME280;63009;52.584;5.932;2023-04-06T05:08:16;101663.63;;;1.38;79.40
74529;BME280;63009;52.584;5.932;2023-04-06T05:10:42;101675.78;;;1.39;79.53
74529;BME280;63009;52.584;5.932;2023-04-06T05:13:07;101681.81;;;1.47;79.73
74529;BME280;63009;52.584;5.932;2023-04-06T05:15:32;101654.09;;;1.37;79.90
74529;BME280;63009;52.584;5.932;2023-04-06T05:18:00;101668.75;;;1.48;79.81
74529;BME280;63009;52.584;5.932;2023-04-06T05:20:26;101674.78;;;1.58;80.12
74529;BME280;63009;52.584;5.932;2023-04-06T05:22:51;101667.84;;;1.56;80.46
74529;BME280;63009;52.584;5.932;2023-04-06T05:25:17;101672.13;;;1.63;80.71
74529;BME280;63009;52.584;5.932;2023-04-06T05:27:42;101670.31;;;1.72;80.33
74529;BME280;63009;52.584;5.932;2023-04-06T05:30:07;101670.25;;;1.78;80.21
74529;BME280;63009;52.584;5.932;2023-04-06T05:32:33;101678.94;;;1.79;80.71
74529;BME280;63009;52.584;5.932;2023-04-06T05:34:59;101664.13;;;1.84;81.05
74529;BME280;63009;52.584;5.932;2023-04-06T05:37:24;101668.38;;;1.91;80.70
74529;BME280;63009;52.584;5.932;2023-04-06T05:39:50;101657.03;;;1.95;80.66
74529;BME280;63009;52.584;5.932;2023-04-06T05:42:15;101666.59;;;1.98;80.38
74529;BME280;63009;52.584;5.932;2023-04-06T05:44:41;101640.53;;;1.98;79.33
74529;BME280;63009;52.584;5.932;2023-04-06T05:47:07;101662.06;;;2.17;78.89
74529;BME280;63009;52.584;5.932;2023-04-06T05:49:32;101646.41;;;2.18;78.37
74529;BME280;63009;52.584;5.932;2023-04-06T05:51:57;101657.56;;;2.29;77.88
74529;BME280;63009;52.584;5.932;2023-04-06T05:54:23;101647.06;;;2.35;78.00
74529;BME280;63009;52.584;5.932;2023-04-06T05:56:48;101659.06;;;2.50;77.65
74529;BME280;63009;52.584;5.932;2023-04-06T05:59:13;101626.09;;;2.45;77.02
74529;BME280;63009;52.584;5.932;2023-04-06T06:01:38;101643.25;;;2.62;76.86
74529;BME280;63009;52.584;5.932;2023-04-06T06:04:04;101659.56;;;2.78;76.42
74529;BME280;63009;52.584;5.932;2023-04-06T06:06:29;101656.81;;;2.89;76.70
74529;BME280;63009;52.584;5.932;2023-04-06T06:08:56;101649.88;;;2.88;76.27
74529;BME280;63009;52.584;5.932;2023-04-06T06:11:24;101661.75;;;3.10;75.82
74529;BME280;63009;52.584;5.932;2023-04-06T06:13:49;101656.34;;;3.22;75.88
74529;BME280;63009;52.584;5.932;2023-04-06T06:16:15;101650.09;;;3.33;75.67
74529;BME280;63009;52.584;5.932;2023-04-06T06:18:40;101652.69;;;3.34;75.32
74529;BME280;63009;52.584;5.932;2023-04-06T06:21:05;101654.28;;;3.44;75.76
74529;BME280;63009;52.584;5.932;2023-04-06T06:23:31;101657.63;;;3.51;75.47
74529;BME280;63009;52.584;5.932;2023-04-06T06:25:56;101653.16;;;3.59;75.36
74529;BME280;63009;52.584;5.932;2023-04-06T06:28:23;101647.84;;;3.64;74.83
74529;BME280;63009;52.584;5.932;2023-04-06T06:30:50;101646.00;;;3.70;74.54
74529;BME280;63009;52.584;5.932;2023-04-06T06:33:15;101654.63;;;3.75;74.53
74529;BME280;63009;52.584;5.932;2023-04-06T06:35:40;101635.56;;;3.69;74.40
74529;BME280;63009;52.584;5.932;2023-04-06T06:38:06;101637.16;;;3.77;73.99
74529;BME280;63009;52.584;5.932;2023-04-06T06:40:31;101643.91;;;3.89;73.56
74529;BME280;63009;52.584;5.932;2023-04-06T06:42:56;101644.66;;;3.97;72.90
74529;BME280;63009;52.584;5.932;2023-04-06T06:45:21;101644.41;;;4.11;71.52
74529;BME280;63009;52.584;5.932;2023-04-06T06:47:47;101652.63;;;4.37;71.00
74529;BME280;63009;52.584;5.932;2023-04-06T06:50:12;101647.00;;;4.56;70.00
74529;BME280;63009;52.584;5.932;2023-04-06T06:52:37;101643.06;;;4.76;68.61
74529;BME280;63009;52.584;5.932;2023-04-06T06:55:03;101637.63;;;4.86;67.61
74529;BME280;63009;52.584;5.932;2023-04-06T06:57:28;101626.81;;;5.01;68.46
74529;BME280;63009;52.584;5.932;2023-04-06T06:59:53;101631.69;;;5.16;66.52
74529;BME280;63009;52.584;5.932;2023-04-06T07:02:19;101634.44;;;5.47;66.24
74529;BME280;63009;52.584;5.932;2023-04-06T07:04:47;101629.47;;;5.71;65.07
74529;BME280;63009;52.584;5.932;2023-04-06T07:07:13;101623.19;;;5.78;64.88
74529;BME280;63009;52.584;5.932;2023-04-06T07:09:38;101619.41;;;5.88;64.48
74529;BME280;63009;52.584;5.932;2023-04-06T07:12:04;101633.75;;;6.09;63.83
74529;BME280;63009;52.584;5.932;2023-04-06T07:14:29;101618.25;;;6.31;64.70
74529;BME280;63009;52.584;5.932;2023-04-06T07:16:54;101626.75;;;6.40;63.73
74529;BME280;63009;52.584;5.932;2023-04-06T07:19:20;101629.66;;;6.61;63.35
74529;BME280;63009;52.584;5.932;2023-04-06T07:21:45;101620.94;;;6.88;62.00
74529;BME280;63009;52.584;5.932;2023-04-06T07:24:10;101614.22;;;7.07;61.98
74529;BME280;63009;52.584;5.932;2023-04-06T07:26:36;101616.03;;;7.33;60.77
74529;BME280;63009;52.584;5.932;2023-04-06T07:29:01;101614.25;;;7.60;59.08
74529;BME280;63009;52.584;5.932;2023-04-06T07:31:26;101615.91;;;7.89;59.34
74529;BME280;63009;52.584;5.932;2023-04-06T07:33:51;101612.84;;;8.25;58.55
74529;BME280;63009;52.584;5.932;2023-04-06T07:36:17;101623.28;;;8.53;57.81
74529;BME280;63009;52.584;5.932;2023-04-06T07:38:43;101618.53;;;8.62;56.79
74529;BME280;63009;52.584;5.932;2023-04-06T07:41:08;101607.84;;;8.66;56.88
74529;BME280;63009;52.584;5.932;2023-04-06T07:43:33;101623.75;;;8.86;56.28
74529;BME280;63009;52.584;5.932;2023-04-06T07:45:58;101613.13;;;8.89;55.96
74529;BME280;63009;52.584;5.932;2023-04-06T07:48:25;101613.00;;;8.92;54.56
74529;BME280;63009;52.584;5.932;2023-04-06T07:50:50;101625.03;;;8.76;56.42
74529;BME280;63009;52.584;5.932;2023-04-06T07:53:16;101613.75;;;8.72;56.50
74529;BME280;63009;52.584;5.932;2023-04-06T07:55:41;101583.03;;;8.71;56.88
74529;BME280;63009;52.584;5.932;2023-04-06T07:58:06;101610.63;;;8.84;57.99
74529;BME280;63009;52.584;5.932;2023-04-06T08:00:32;101597.09;;;8.93;57.35
74529;BME280;63009;52.584;5.932;2023-04-06T08:02:57;101591.78;;;8.95;57.99
74529;BME280;63009;52.584;5.932;2023-04-06T08:05:22;101607.66;;;9.15;58.30
74529;BME280;63009;52.584;5.932;2023-04-06T08:07:48;101609.91;;;9.25;58.62
74529;BME280;63009;52.584;5.932;2023-04-06T08:10:13;101588.81;;;9.25;58.99
74529;BME280;63009;52.584;5.932;2023-04-06T08:12:38;101599.91;;;9.11;55.03
74529;BME280;63009;52.584;5.932;2023-04-06T08:15:04;101596.38;;;9.12;55.11
74529;BME280;63009;52.584;5.932;2023-04-06T08:17:31;101595.28;;;9.17;55.44
74529;BME280;63009;52.584;5.932;2023-04-06T08:19:57;101587.91;;;9.26;55.00
74529;BME280;63009;52.584;5.932;2023-04-06T08:22:22;101600.84;;;9.32;54.06
74529;BME280;63009;52.584;5.932;2023-04-06T08:24:47;101603.03;;;9.42;54.62
74529;BME280;63009;52.584;5.932;2023-04-06T08:27:13;101588.34;;;9.57;54.89
74529;BME280;63009;52.584;5.932;2023-04-06T08:29:39;101589.00;;;9.82;54.26
74529;BME280;63009;52.584;5.932;2023-04-06T08:32:05;101583.00;;;9.99;53.25
74529;BME280;63009;52.584;5.932;2023-04-06T08:34:32;101595.56;;;10.13;52.29
74529;BME280;63009;52.584;5.932;2023-04-06T08:36:58;101587.53;;;10.16;52.53
74529;BME280;63009;52.584;5.932;2023-04-06T08:39:23;101583.13;;;10.17;53.08
74529;BME280;63009;52.584;5.932;2023-04-06T08:41:51;101593.88;;;10.12;53.32
74529;BME280;63009;52.584;5.932;2023-04-06T08:44:18;101590.97;;;10.18;52.17
74529;BME280;63009;52.584;5.932;2023-04-06T08:46:43;101595.13;;;10.24;51.93
74529;BME280;63009;52.584;5.932;2023-04-06T08:49:09;101589.00;;;10.23;51.71
74529;BME280;63009;52.584;5.932;2023-04-06T08:51:36;101590.63;;;10.26;52.42
74529;BME280;63009;52.584;5.932;2023-04-06T08:54:03;101597.03;;;10.20;50.34
74529;BME280;63009;52.584;5.932;2023-04-06T08:56:28;101592.81;;;10.16;50.57
74529;BME280;63009;52.584;5.932;2023-04-06T08:58:54;101586.28;;;10.04;51.88
74529;BME280;63009;52.584;5.932;2023-04-06T09:01:22;101578.13;;;9.90;51.67
74529;BME280;63009;52.584;5.932;2023-04-06T09:03:51;101592.19;;;9.91;51.02
74529;BME280;63009;52.584;5.932;2023-04-06T09:06:19;101575.28;;;9.95;51.66
74529;BME280;63009;52.584;5.932;2023-04-06T09:08:44;101587.69;;;9.93;50.92
74529;BME280;63009;52.584;5.932;2023-04-06T09:11:10;101590.97;;;9.98;52.04
74529;BME280;63009;52.584;5.932;2023-04-06T09:13:49;101596.41;;;9.95;50.75
74529;BME280;63009;52.584;5.932;2023-04-06T09:16:15;101588.34;;;9.98;51.34
74529;BME280;63009;52.584;5.932;2023-04-06T09:18:41;101587.00;;;10.08;51.74
74529;BME280;63009;52.584;5.932;2023-04-06T09:21:07;101573.31;;;10.00;51.49
74529;BME280;63009;52.584;5.932;2023-04-06T09:23:33;101585.50;;;10.02;52.27
74529;BME280;63009;52.584;5.932;2023-04-06T09:26:28;101577.78;;;9.98;52.49
74529;BME280;63009;52.584;5.932;2023-04-06T09:28:56;101579.94;;;10.08;52.80
74529;BME280;63009;52.584;5.932;2023-04-06T09:31:29;101576.91;;;10.18;53.39
74529;BME280;63009;52.584;5.932;2023-04-06T09:33:56;101578.28;;;10.26;52.39
74529;BME280;63009;52.584;5.932;2023-04-06T09:36:35;101554.84;;;10.19;51.90
74529;BME280;63009;52.584;5.932;2023-04-06T09:39:04;101575.47;;;10.31;51.06
74529;BME280;63009;52.584;5.932;2023-04-06T09:41:31;101571.22;;;10.27;50.92
74529;BME280;63009;52.584;5.932;2023-04-06T09:44:08;101567.34;;;10.15;49.90
74529;BME280;63009;52.584;5.932;2023-04-06T09:46:38;101570.31;;;10.28;50.56
74529;BME280;63009;52.584;5.932;2023-04-06T09:49:05;101574.91;;;10.43;50.98
74529;BME280;63009;52.584;5.932;2023-04-06T09:51:35;101557.97;;;10.47;51.59
74529;BME280;63009;52.584;5.932;2023-04-06T09:54:01;101554.28;;;10.68;50.67
74529;BME280;63009;52.584;5.932;2023-04-06T09:56:33;101551.84;;;10.83;50.21
74529;BME280;63009;52.584;5.932;2023-04-06T09:59:11;101562.56;;;10.98;49.92
74529;BME280;63009;52.584;5.932;2023-04-06T10:01:41;101559.88;;;11.17;49.37
74529;BME280;63009;52.584;5.932;2023-04-06T10:04:21;101536.59;;;11.24;49.49
74529;BME280;63009;52.584;5.932;2023-04-06T10:06:50;101551.34;;;11.47;48.67
74529;BME280;63009;52.584;5.932;2023-04-06T10:09:18;101545.09;;;11.65;47.99
74529;BME280;63009;52.584;5.932;2023-04-06T10:11:45;101549.94;;;11.92;48.09
74529;BME280;63009;52.584;5.932;2023-04-06T10:14:12;101551.03;;;12.21;47.28
74529;BME280;63009;52.584;5.932;2023-04-06T10:16:38;101547.56;;;12.52;46.77
74529;BME280;63009;52.584;5.932;2023-04-06T10:19:11;101545.78;;;12.84;46.06
74529;BME280;63009;52.584;5.932;2023-04-06T10:21:39;101544.16;;;12.97;45.91
74529;BME280;63009;52.584;5.932;2023-04-06T10:24:08;101534.53;;;13.10;44.90
74529;BME280;63009;52.584;5.932;2023-04-06T10:26:37;101539.91;;;13.08;45.31
74529;BME280;63009;52.584;5.932;2023-04-06T10:29:03;101543.59;;;13.06;44.44
74529;BME280;63009;52.584;5.932;2023-04-06T10:31:29;101532.31;;;13.02;43.98
74529;BME280;63009;52.584;5.932;2023-04-06T10:33:59;101543.00;;;13.01;44.91
74529;BME280;63009;52.584;5.932;2023-04-06T10:36:27;101539.59;;;12.99;44.78
74529;BME280;63009;52.584;5.932;2023-04-06T10:38:57;101546.28;;;12.90;45.40
74529;BME280;63009;52.584;5.932;2023-04-06T10:41:24;101543.72;;;12.73;44.22
74529;BME280;63009;52.584;5.932;2023-04-06T10:43:57;101549.88;;;12.58;45.32
74529;BME280;63009;52.584;5.932;2023-04-06T10:46:27;101523.88;;;12.48;46.46
74529;BME280;63009;52.584;5.932;2023-04-06T10:48:52;101541.50;;;12.65;46.07
74529;BME280;63009;52.584;5.932;2023-04-06T10:51:18;101534.81;;;12.58;45.29
74529;BME280;63009;52.584;5.932;2023-04-06T10:53:46;101533.53;;;12.49;46.11
74529;BME280;63009;52.584;5.932;2023-04-06T10:56:14;101535.31;;;12.49;45.67
74529;BME280;63009;52.584;5.932;2023-04-06T10:58:51;101544.03;;;12.51;46.79
74529;BME280;63009;52.584;5.932;2023-04-06T11:01:18;101542.25;;;12.52;46.36
74529;BME280;63009;52.584;5.932;2023-04-06T11:03:49;101540.63;;;12.49;46.80
74529;BME280;63009;52.584;5.932;2023-04-06T11:06:19;101537.38;;;12.60;46.98
74529;BME280;63009;52.584;5.932;2023-04-06T11:08:44;101538.06;;;12.47;48.01
74529;BME280;63009;52.584;5.932;2023-04-06T11:11:12;101535.16;;;12.52;49.80
74529;BME280;63009;52.584;5.932;2023-04-06T11:13:42;101544.00;;;12.68;51.96
74529;BME280;63009;52.584;5.932;2023-04-06T11:16:29;101538.59;;;12.54;51.27
74529;BME280;63009;52.584;5.932;2023-04-06T11:19:02;101551.22;;;12.33;52.92
74529;BME280;63009;52.584;5.932;2023-04-06T11:21:34;101546.59;;;12.37;52.75
74529;BME280;63009;52.584;5.932;2023-04-06T11:24:15;101536.53;;;12.28;51.89
74529;BME280;63009;52.584;5.932;2023-04-06T11:29:15;101542.84;;;12.25;52.97
74529;BME280;63009;52.584;5.932;2023-04-06T11:31:44;101546.06;;;12.14;54.19
74529;BME280;63009;52.584;5.932;2023-04-06T11:34:11;101544.19;;;12.16;54.81
74529;BME280;63009;52.584;5.932;2023-04-06T11:36:39;101545.91;;;12.17;55.74
74529;BME280;63009;52.584;5.932;2023-04-06T11:39:06;101530.06;;;12.00;55.81
74529;BME280;63009;52.584;5.932;2023-04-06T11:41:32;101494.72;;;11.84;55.98
74529;BME280;63009;52.584;5.932;2023-04-06T11:44:00;101538.09;;;11.99;55.85
74529;BME280;63009;52.584;5.932;2023-04-06T11:46:26;101544.03;;;11.86;55.69
74529;BME280;63009;52.584;5.932;2023-04-06T11:48:51;101520.34;;;11.83;56.53
74529;BME280;63009;52.584;5.932;2023-04-06T11:51:22;101528.72;;;11.92;57.09
74529;BME280;63009;52.584;5.932;2023-04-06T11:53:51;101523.53;;;11.73;57.33
74529;BME280;63009;52.584;5.932;2023-04-06T11:56:45;101539.03;;;11.80;58.54
74529;BME280;63009;52.584;5.932;2023-04-06T11:59:11;101536.97;;;11.68;59.44
74529;BME280;63009;52.584;5.932;2023-04-06T12:01:44;101541.84;;;11.43;60.14
74529;BME280;63009;52.584;5.932;2023-04-06T12:04:10;101533.34;;;11.36;59.14
74529;BME280;63009;52.584;5.932;2023-04-06T12:06:35;101532.41;;;11.37;61.56
74529;BME280;63009;52.584;5.932;2023-04-06T12:09:00;101531.97;;;11.29;61.67
74529;BME280;63009;52.584;5.932;2023-04-06T12:11:26;101530.47;;;11.23;61.24
74529;BME280;63009;52.584;5.932;2023-04-06T12:13:51;101529.53;;;11.24;60.68
74529;BME280;63009;52.584;5.932;2023-04-06T12:16:16;101536.47;;;11.27;62.36
74529;BME280;63009;52.584;5.932;2023-04-06T12:18:44;101522.28;;;11.11;61.54
74529;BME280;63009;52.584;5.932;2023-04-06T12:21:09;101537.00;;;11.16;63.28
74529;BME280;63009;52.584;5.932;2023-04-06T12:23:34;101537.09;;;11.15;64.30
74529;BME280;63009;52.584;5.932;2023-04-06T12:26:00;101531.56;;;11.19;64.15
74529;BME280;63009;52.584;5.932;2023-04-06T12:28:26;101536.16;;;11.16;63.95
74529;BME280;63009;52.584;5.932;2023-04-06T12:30:52;101525.69;;;10.95;64.25
74529;BME280;63009;52.584;5.932;2023-04-06T12:33:17;101526.28;;;10.83;66.92
74529;BME280;63009;52.584;5.932;2023-04-06T12:35:42;101526.22;;;10.85;66.08
74529;BME280;63009;52.584;5.932;2023-04-06T12:38:08;101525.91;;;10.91;66.78
74529;BME280;63009;52.584;5.932;2023-04-06T12:40:37;101505.97;;;10.84;66.99
74529;BME280;63009;52.584;5.932;2023-04-06T12:43:03;101518.50;;;10.80;67.79
74529;BME280;63009;52.584;5.932;2023-04-06T12:45:30;101517.44;;;10.65;69.07
74529;BME280;63009;52.584;5.932;2023-04-06T12:47:56;101522.25;;;10.57;70.42
74529;BME280;63009;52.584;5.932;2023-04-06T12:50:22;101531.88;;;10.39;71.07
74529;BME280;63009;52.584;5.932;2023-04-06T12:52:47;101525.34;;;10.29;73.10
74529;BME280;63009;52.584;5.932;2023-04-06T12:55:12;101516.16;;;10.18;74.00